Time;durP1;ratioP1;P1;durP2;ratioP2;P2;SDS_P1;SDS_P2;PMS_P1;PMS_P2;Temp;Humidity;BMP_temperature;BMP_pressure;BME280_temperature;BME280_humidity;BME280_pressure;Samples;Min_cycle;Max_cycle;Signal;HPM_P1;HPM_P2
2022/12/17 13:06:44;;;;;;;1412.83;999.90;;;-3.30;99.90;;;;;;5039732;28;20226;-50
2022/12/17 13:09:30;;;;;;;1557.30;999.90;;;-3.40;99.90;;;;;;5045631;28;20655;-51
2022/12/17 13:12:22;;;;;;;1453.30;999.90;;;-3.40;99.90;;;;;;5044378;28;20236;-52
2022/12/17 13:14:55;;;;;;;1141.27;988.30;;;-3.50;99.90;;;;;;5035191;28;20791;-52
2022/12/17 13:17:31;;;;;;;1257.47;999.90;;;-3.40;99.90;;;;;;5031634;28;20670;-51
2022/12/17 13:20:18;;;;;;;1958.63;999.90;;;-3.50;99.90;;;;;;5028783;28;20626;-51
2022/12/17 13:22:52;;;;;;;1999.90;999.90;;;-3.50;99.90;;;;;;5019132;28;20349;-52
2022/12/17 13:25:23;;;;;;;1173.43;991.87;;;-3.50;99.90;;;;;;5031039;28;20316;-53
2022/12/17 13:27:51;;;;;;;1401.90;993.53;;;-3.60;99.90;;;;;;5037084;28;20661;-51
2022/12/17 13:30:32;;;;;;;1427.53;999.90;;;-3.60;99.90;;;;;;5041962;28;20239;-51
2022/12/17 13:33:17;;;;;;;1511.33;990.07;;;-3.60;99.90;;;;;;5049277;28;20238;-52
2022/12/17 13:35:54;;;;;;;1212.70;999.90;;;-3.60;99.90;;;;;;5045020;28;20199;-52
2022/12/17 13:38:33;;;;;;;1359.90;999.90;;;-3.60;99.90;;;;;;5038424;28;20622;-50
2022/12/17 13:41:08;;;;;;;1115.17;989.23;;;-3.60;99.90;;;;;;5050504;28;20715;-52
2022/12/17 13:43:44;;;;;;;1392.07;999.90;;;-3.60;99.90;;;;;;5045276;28;20238;-51
2022/12/17 13:46:20;;;;;;;1475.83;999.90;;;-3.60;99.90;;;;;;5045735;28;20299;-52
2022/12/17 13:48:57;;;;;;;1386.33;999.90;;;-3.60;99.90;;;;;;5050666;28;20206;-51
2022/12/17 13:51:27;;;;;;;1482.77;999.90;;;-3.60;99.90;;;;;;5044827;28;20241;-52
2022/12/17 13:53:58;;;;;;;1455.83;999.90;;;-3.70;99.90;;;;;;5050183;28;20210;-53
2022/12/17 13:56:30;;;;;;;1499.50;999.90;;;-3.70;99.90;;;;;;5050295;28;20315;-52
2022/12/17 13:59:01;;;;;;;1420.00;999.90;;;-3.70;99.90;;;;;;5050326;28;20705;-50
2022/12/17 14:01:44;;;;;;;1269.70;999.90;;;-3.80;99.90;;;;;;5049533;28;20226;-51
2022/12/17 14:04:21;;;;;;;1274.03;999.90;;;-3.80;99.90;;;;;;5044181;28;20203;-51
2022/12/17 14:06:50;;;;;;;1151.27;982.80;;;-3.80;99.90;;;;;;5043738;28;20197;-52
2022/12/17 14:09:22;;;;;;;1208.33;999.90;;;-3.80;99.90;;;;;;5044009;28;20280;-51
2022/12/17 14:14:38;;;;;;;1228.73;999.90;;;-3.90;99.90;;;;;;5036409;28;20750;-52
2022/12/17 14:17:07;;;;;;;1086.47;969.33;;;-3.80;99.90;;;;;;5046562;28;20222;-50
2022/12/17 14:19:37;;;;;;;1439.63;999.90;;;-3.80;99.90;;;;;;5043869;28;20302;-52
2022/12/17 14:22:05;;;;;;;1313.50;999.90;;;-3.90;99.90;;;;;;5048388;28;20768;-51
2022/12/17 14:24:35;;;;;;;1202.87;999.90;;;-3.90;99.90;;;;;;5047129;28;20207;-52
2022/12/17 14:27:03;;;;;;;1124.37;997.63;;;-3.90;99.90;;;;;;5047485;28;20238;-52
2022/12/17 14:29:32;;;;;;;1333.13;999.90;;;-3.90;99.90;;;;;;5043815;28;20214;-51
2022/12/17 14:32:02;;;;;;;1287.87;999.90;;;-3.90;99.90;;;;;;5047315;28;20263;-51
2022/12/17 14:34:41;;;;;;;1237.70;999.90;;;-3.90;99.90;;;;;;5047976;28;20241;-51
2022/12/17 14:37:18;;;;;;;1202.10;999.90;;;-3.90;99.90;;;;;;5040019;28;20237;-52
2022/12/17 14:39:48;;;;;;;1423.57;999.90;;;-3.90;99.90;;;;;;5037600;28;20210;-51
2022/12/17 14:42:25;;;;;;;1342.43;999.90;;;-3.90;99.90;;;;;;5049502;28;20620;-51
2022/12/17 14:44:56;;;;;;;1224.50;999.90;;;-3.80;99.90;;;;;;5041744;28;20262;-51
2022/12/17 14:47:26;;;;;;;1273.37;999.90;;;-3.80;99.90;;;;;;5046528;28;20237;-50
2022/12/17 14:49:58;;;;;;;1272.80;999.90;;;-3.90;99.90;;;;;;5050849;28;20233;-50
2022/12/17 14:52:39;;;;;;;1219.50;999.90;;;-4.00;99.90;;;;;;5049699;28;20291;-51
2022/12/17 14:55:31;;;;;;;1243.40;999.90;;;-4.00;99.90;;;;;;5050210;28;20293;-51
2022/12/17 14:58:17;;;;;;;1291.33;999.90;;;-4.10;99.90;;;;;;5048848;28;20194;-51
2022/12/17 15:00:49;;;;;;;1261.40;999.90;;;-4.10;99.90;;;;;;5049734;28;20249;-50
2022/12/17 15:03:23;;;;;;;1296.10;999.90;;;-4.20;99.90;;;;;;5047277;28;20234;-50
2022/12/17 15:05:54;;;;;;;1236.87;999.90;;;-4.30;99.90;;;;;;5050095;28;20210;-51
2022/12/17 15:08:22;;;;;;;1259.00;999.90;;;-4.30;99.90;;;;;;5048461;28;20220;-52
2022/12/17 15:10:52;;;;;;;1492.70;999.90;;;-4.30;99.90;;;;;;5049900;28;20265;-51
2022/12/17 15:13:20;;;;;;;1352.87;999.90;;;-4.40;99.90;;;;;;5049366;28;20218;-51
2022/12/17 15:15:48;;;;;;;1550.53;999.90;;;-4.50;99.90;;;;;;5050054;28;20233;-50
2022/12/17 15:18:16;;;;;;;1417.27;999.90;;;-4.50;99.90;;;;;;5049837;28;20302;-50
2022/12/17 15:20:45;;;;;;;1216.30;999.90;;;-4.70;99.90;;;;;;5049187;28;20392;-52
2022/12/17 15:23:19;;;;;;;1281.40;999.90;;;-4.70;99.90;;;;;;5048710;28;20293;-51
2022/12/17 15:25:48;;;;;;;1217.33;999.90;;;-4.80;99.90;;;;;;5048619;28;20248;-50
2022/12/17 15:28:20;;;;;;;1360.37;999.90;;;-4.90;99.90;;;;;;5031976;28;20219;-51
2022/12/17 15:30:49;;;;;;;1317.30;999.90;;;-4.90;99.90;;;;;;5046288;28;20309;-51
2022/12/17 15:33:17;;;;;;;1421.50;999.90;;;-4.90;99.90;;;;;;5046970;28;20316;-51
2022/12/17 15:35:45;;;;;;;1228.13;999.90;;;-5.00;99.90;;;;;;5046014;28;20688;-51
2022/12/17 15:38:13;;;;;;;1259.57;999.90;;;-5.00;99.90;;;;;;5048550;28;20206;-51
2022/12/17 15:40:42;;;;;;;1220.00;999.90;;;-5.10;99.90;;;;;;5047486;28;20269;-51
2022/12/17 15:43:10;;;;;;;1383.57;999.90;;;-5.10;99.90;;;;;;5048835;28;20204;-51
2022/12/17 15:45:40;;;;;;;1200.77;996.27;;;-5.20;99.90;;;;;;5048928;28;20206;-51
2022/12/17 15:48:09;;;;;;;1173.57;997.63;;;-5.20;99.90;;;;;;5049245;28;20248;-51
2022/12/17 15:50:37;;;;;;;1148.17;999.90;;;-5.20;99.90;;;;;;5036038;28;20281;-51
2022/12/17 15:53:06;;;;;;;1163.37;985.43;;;-5.30;99.90;;;;;;5034339;28;20689;-50
2022/12/17 15:55:34;;;;;;;1297.50;999.90;;;-5.30;99.90;;;;;;5041823;28;20301;-51
2022/12/17 15:58:03;;;;;;;1198.30;999.90;;;-5.40;99.90;;;;;;5044012;28;20241;-51
2022/12/17 16:00:31;;;;;;;1225.17;999.90;;;-5.40;99.90;;;;;;5038937;28;20243;-50
2022/12/17 16:03:00;;;;;;;1292.30;999.90;;;-5.40;99.90;;;;;;5048043;28;20284;-50
2022/12/17 16:05:29;;;;;;;1298.80;999.90;;;-5.50;99.90;;;;;;5045417;28;20248;-50
2022/12/17 16:07:57;;;;;;;1241.10;999.90;;;-5.50;99.90;;;;;;5048525;28;20236;-51
2022/12/17 16:10:26;;;;;;;1321.10;999.90;;;-5.60;99.90;;;;;;5048877;28;20312;-50
2022/12/17 16:12:54;;;;;;;1170.40;980.60;;;-5.60;99.90;;;;;;5048195;28;20312;-51
2022/12/17 16:15:22;;;;;;;1176.53;961.90;;;-5.70;99.90;;;;;;5048922;28;20667;-51
2022/12/17 16:17:50;;;;;;;1127.40;991.13;;;-5.70;99.90;;;;;;5048847;28;20218;-50
2022/12/17 16:20:21;;;;;;;1131.60;937.83;;;-5.80;99.90;;;;;;5049226;28;20211;-50
2022/12/17 16:22:49;;;;;;;1211.37;992.70;;;-5.80;99.90;;;;;;5048276;28;20653;-51
2022/12/17 16:25:18;;;;;;;1196.97;980.70;;;-5.80;99.90;;;;;;5047878;28;20289;-50
2022/12/17 16:27:46;;;;;;;1221.27;999.00;;;-5.90;99.90;;;;;;5049088;28;20213;-50
2022/12/17 16:30:14;;;;;;;1496.97;999.90;;;-5.90;99.90;;;;;;5047966;28;20984;-51
2022/12/17 16:32:43;;;;;;;1295.80;999.90;;;-5.90;99.90;;;;;;5044456;28;20276;-51
2022/12/17 16:35:12;;;;;;;1324.50;999.90;;;-5.90;99.90;;;;;;5048707;28;20206;-50
2022/12/17 16:37:42;;;;;;;1274.20;999.90;;;-5.90;99.90;;;;;;5046938;28;20630;-50
2022/12/17 16:40:11;;;;;;;1248.50;999.90;;;-6.00;99.90;;;;;;5041609;28;20252;-50
2022/12/17 16:42:39;;;;;;;1177.97;989.70;;;-5.90;99.90;;;;;;5035653;28;20707;-51
2022/12/17 16:45:08;;;;;;;1335.00;999.90;;;-6.00;99.90;;;;;;5038838;28;20620;-51
2022/12/17 16:47:36;;;;;;;1306.43;999.90;;;-6.00;99.90;;;;;;5040334;28;20285;-51
2022/12/17 16:50:05;;;;;;;1377.50;999.90;;;-6.00;99.90;;;;;;5039029;28;20248;-51
2022/12/17 16:52:34;;;;;;;1355.27;999.90;;;-6.00;99.90;;;;;;5036465;28;20313;-50
2022/12/17 16:55:04;;;;;;;1279.10;952.20;;;-6.10;99.90;;;;;;5039286;28;20233;-50
2022/12/17 16:57:32;;;;;;;1273.17;958.83;;;-6.20;99.90;;;;;;5034069;28;20643;-51
2022/12/17 17:00:00;;;;;;;1123.97;929.97;;;-6.20;99.90;;;;;;5047534;28;20206;-51
2022/12/17 17:02:28;;;;;;;1240.73;999.90;;;-6.20;99.90;;;;;;5047977;28;20308;-51
2022/12/17 17:04:57;;;;;;;1197.47;969.97;;;-6.20;99.90;;;;;;5050915;28;20239;-51
2022/12/17 17:07:25;;;;;;;1048.77;874.37;;;-6.30;99.90;;;;;;5050365;28;20225;-51
2022/12/17 17:09:53;;;;;;;1168.50;968.10;;;-6.30;99.90;;;;;;5044774;28;20225;-51
2022/12/17 17:12:24;;;;;;;1180.97;999.90;;;-6.30;99.90;;;;;;5049183;28;20308;-51
2022/12/17 17:14:52;;;;;;;1212.80;999.90;;;-6.30;99.90;;;;;;5042847;28;20229;-49
2022/12/17 17:17:21;;;;;;;1245.23;999.90;;;-6.40;99.90;;;;;;5041024;28;20209;-50
2022/12/17 17:20:11;;;;;;;1250.57;999.90;;;-6.40;99.90;;;;;;5043934;28;20220;-50
2022/12/17 17:22:39;;;;;;;1118.30;919.03;;;-6.50;99.90;;;;;;5042995;28;20245;-52
2022/12/17 17:25:08;;;;;;;1160.43;938.27;;;-6.50;99.90;;;;;;5035808;28;20206;-50
2022/12/17 17:27:37;;;;;;;1271.20;945.27;;;-6.50;99.90;;;;;;5043295;28;20395;-51
2022/12/17 17:30:07;;;;;;;1182.77;884.70;;;-6.60;99.90;;;;;;5048896;28;21079;-51
2022/12/17 17:32:35;;;;;;;1141.57;979.87;;;-6.60;99.90;;;;;;5040516;28;20225;-51
2022/12/17 17:35:04;;;;;;;1251.17;999.90;;;-6.60;99.90;;;;;;5042896;28;20288;-51
2022/12/17 17:37:32;;;;;;;1224.47;999.90;;;-6.70;99.90;;;;;;5042654;28;20211;-50
2022/12/17 17:40:00;;;;;;;1161.63;954.40;;;-6.70;99.90;;;;;;5047753;28;20234;-51
2022/12/17 17:42:28;;;;;;;1087.57;911.53;;;-6.70;99.90;;;;;;5049083;28;20849;-50
2022/12/17 17:44:58;;;;;;;1147.60;931.80;;;-6.70;99.90;;;;;;5050010;28;20398;-50
2022/12/17 17:47:28;;;;;;;1206.30;959.87;;;-6.80;99.90;;;;;;5049902;28;20245;-50
2022/12/17 17:49:57;;;;;;;1160.20;933.80;;;-6.80;99.90;;;;;;5049230;28;20216;-52
2022/12/17 17:52:25;;;;;;;1151.50;983.60;;;-6.80;99.90;;;;;;5045369;28;20319;-51
2022/12/17 17:54:53;;;;;;;1162.30;999.90;;;-6.90;99.90;;;;;;5048271;28;20656;-51
2022/12/17 17:57:21;;;;;;;1251.87;999.90;;;-6.90;99.90;;;;;;5042735;28;20241;-51
2022/12/17 17:59:49;;;;;;;1239.03;999.90;;;-6.90;99.90;;;;;;5048719;28;20244;-50
2022/12/17 18:02:19;;;;;;;1298.10;999.90;;;-6.90;99.90;;;;;;5034658;28;20309;-51
2022/12/17 18:04:47;;;;;;;1256.20;999.90;;;-7.00;99.90;;;;;;5031327;28;20802;-50
2022/12/17 18:07:15;;;;;;;1328.07;999.90;;;-7.00;99.90;;;;;;5032874;28;20207;-51
2022/12/17 18:09:53;;;;;;;1285.40;999.90;;;-7.00;99.90;;;;;;5049015;28;20259;-51
2022/12/17 18:15:07;;;;;;;1174.83;999.90;;;-7.00;99.90;;;;;;5050184;28;20316;-51
2022/12/17 18:17:49;;;;;;;1214.67;999.90;;;-7.00;99.90;;;;;;5050457;28;20694;-51
2022/12/17 18:20:18;;;;;;;1239.27;999.90;;;-7.10;99.90;;;;;;5049791;28;20205;-51
2022/12/17 18:22:46;;;;;;;1317.10;999.90;;;-7.10;99.90;;;;;;5044910;28;20272;-50
2022/12/17 18:25:15;;;;;;;1238.60;999.90;;;-7.10;99.90;;;;;;5046757;28;20233;-51
2022/12/17 18:27:44;;;;;;;1236.83;999.90;;;-7.20;99.90;;;;;;5050202;28;20271;-51
2022/12/17 18:30:13;;;;;;;1242.57;999.90;;;-7.20;99.90;;;;;;5048993;28;20666;-51
2022/12/17 18:32:41;;;;;;;1278.87;999.90;;;-7.20;99.90;;;;;;5050038;28;20233;-50
2022/12/17 18:35:11;;;;;;;1262.93;999.90;;;-7.20;99.90;;;;;;5049975;28;20272;-51
2022/12/17 18:37:39;;;;;;;1188.90;999.90;;;-7.20;99.90;;;;;;5048318;28;20287;-51
2022/12/17 18:40:08;;;;;;;1268.90;999.90;;;-7.30;99.90;;;;;;5046737;28;20242;-52
2022/12/17 18:45:25;;;;;;;1337.63;999.90;;;-7.30;99.90;;;;;;5022147;28;20210;-56
2022/12/17 18:47:54;;;;;;;1236.43;999.90;;;-7.40;99.90;;;;;;5048602;28;20202;-51
2022/12/17 18:50:26;;;;;;;1247.93;999.90;;;-7.40;99.90;;;;;;5048831;28;20217;-52
2022/12/17 18:52:55;;;;;;;1166.23;999.90;;;-7.40;99.90;;;;;;5048177;28;20208;-50
2022/12/17 18:55:24;;;;;;;1188.10;999.90;;;-7.40;99.90;;;;;;5048804;28;20287;-51
2022/12/17 18:57:52;;;;;;;1195.40;999.90;;;-7.40;99.90;;;;;;5049090;28;20217;-52
2022/12/17 19:00:21;;;;;;;1189.43;999.90;;;-7.40;99.90;;;;;;5046438;28;20567;-52
2022/12/17 19:02:49;;;;;;;1215.00;999.90;;;-7.40;99.90;;;;;;5049311;28;20234;-51
2022/12/17 19:05:18;;;;;;;1211.90;999.90;;;-7.50;99.90;;;;;;5048053;28;20206;-51
2022/12/17 19:07:48;;;;;;;1252.63;999.90;;;-7.50;99.90;;;;;;5048416;28;20638;-51
2022/12/17 19:10:17;;;;;;;1190.97;999.90;;;-7.50;99.90;;;;;;5049134;28;20217;-52
2022/12/17 19:12:45;;;;;;;1195.53;999.90;;;-7.50;99.90;;;;;;5047790;28;20233;-51
2022/12/17 19:15:13;;;;;;;1215.03;999.90;;;-7.60;99.90;;;;;;5046834;28;20232;-52
2022/12/17 19:17:41;;;;;;;1234.93;999.90;;;-7.60;99.90;;;;;;5039336;28;20833;-51
2022/12/17 19:20:10;;;;;;;1198.30;999.90;;;-7.60;99.90;;;;;;5041001;28;20233;-52
2022/12/17 19:22:39;;;;;;;1191.77;999.90;;;-7.60;99.90;;;;;;5029307;28;20292;-52
2022/12/17 19:25:10;;;;;;;1211.10;999.90;;;-7.60;99.90;;;;;;5045985;28;20206;-52
2022/12/17 19:27:38;;;;;;;1210.73;999.90;;;-7.70;99.90;;;;;;5045475;28;20240;-52
2022/12/17 19:30:08;;;;;;;1159.53;999.90;;;-7.70;99.90;;;;;;5044391;28;20305;-52
2022/12/17 19:32:36;;;;;;;1269.20;999.90;;;-7.60;99.90;;;;;;5043689;28;21064;-52
2022/12/17 19:35:05;;;;;;;1152.47;999.07;;;-7.70;99.90;;;;;;5034249;28;20234;-52
2022/12/17 19:37:33;;;;;;;1134.83;998.20;;;-7.60;99.90;;;;;;5047435;28;20212;-52
2022/12/17 19:40:01;;;;;;;1195.40;999.90;;;-7.70;99.90;;;;;;5035892;28;20206;-51
2022/12/17 19:42:31;;;;;;;1217.47;999.90;;;-7.70;99.90;;;;;;5046692;28;20697;-52
2022/12/17 19:45:05;;;;;;;1107.53;986.00;;;-7.70;99.90;;;;;;5039215;28;20863;-50
2022/12/17 19:47:33;;;;;;;1218.60;999.90;;;-7.70;99.90;;;;;;5047036;28;20297;-50
2022/12/17 19:50:01;;;;;;;1236.07;999.90;;;-7.70;99.90;;;;;;5046104;28;20235;-52
2022/12/17 19:52:30;;;;;;;1137.10;998.00;;;-7.70;99.90;;;;;;5042634;28;20648;-52
2022/12/17 19:54:58;;;;;;;1165.43;998.87;;;-7.70;99.90;;;;;;5036277;28;20220;-51
2022/12/17 19:57:26;;;;;;;1133.23;997.77;;;-7.70;99.90;;;;;;5037994;28;20209;-51
2022/12/17 19:59:56;;;;;;;1128.47;996.87;;;-7.70;99.90;;;;;;5045541;28;20221;-50
2022/12/17 20:02:24;;;;;;;1119.07;988.37;;;-7.70;99.90;;;;;;5043877;28;20232;-51
2022/12/17 20:04:59;;;;;;;1123.50;991.53;;;-7.70;99.90;;;;;;5041009;28;20665;-51
2022/12/17 20:07:29;;;;;;;1372.67;999.90;;;-7.80;99.90;;;;;;5048930;28;20212;-52
2022/12/17 20:09:57;;;;;;;1144.43;996.40;;;-7.80;99.90;;;;;;5039427;28;20271;-52
2022/12/17 20:12:26;;;;;;;1144.77;999.90;;;-7.80;99.90;;;;;;5044111;28;20317;-51
2022/12/17 20:14:54;;;;;;;1234.97;999.90;;;-7.80;99.90;;;;;;5038675;28;20315;-51
2022/12/17 20:17:24;;;;;;;1181.40;999.90;;;-7.80;99.90;;;;;;5041538;28;20221;-52
2022/12/17 20:19:53;;;;;;;1145.93;999.90;;;-7.80;99.90;;;;;;5038050;28;20484;-51
2022/12/17 20:22:24;;;;;;;1181.37;999.90;;;-7.90;99.90;;;;;;5047395;28;20231;-50
2022/12/17 20:24:53;;;;;;;1170.43;999.90;;;-7.90;99.90;;;;;;5043521;28;20223;-50
2022/12/17 20:27:21;;;;;;;1196.00;999.90;;;-7.90;99.90;;;;;;5046731;28;20590;-52
2022/12/17 20:29:49;;;;;;;1179.13;999.90;;;-7.90;99.90;;;;;;5046541;28;20219;-51
2022/12/17 20:32:19;;;;;;;1194.53;999.90;;;-7.90;99.90;;;;;;5035811;28;20262;-51
2022/12/17 20:34:50;;;;;;;1165.33;999.90;;;-7.90;99.90;;;;;;5035937;28;20263;-51
2022/12/17 20:37:18;;;;;;;1159.00;999.90;;;-7.90;99.90;;;;;;5043337;28;20241;-52
2022/12/17 20:39:46;;;;;;;1166.27;999.90;;;-7.90;99.90;;;;;;5045472;28;20651;-51
2022/12/17 20:42:16;;;;;;;1141.30;999.47;;;-7.90;99.90;;;;;;5047621;28;20273;-52
2022/12/17 20:44:44;;;;;;;1140.37;999.90;;;-8.00;99.90;;;;;;5047588;28;20914;-52
2022/12/17 20:47:20;;;;;;;1131.50;990.60;;;-8.00;99.90;;;;;;5049527;28;20215;-51
2022/12/17 20:49:49;;;;;;;1123.83;995.90;;;-8.00;99.90;;;;;;5047352;28;20204;-52
2022/12/17 20:52:18;;;;;;;1138.80;999.90;;;-7.90;99.90;;;;;;5042396;28;20314;-52
2022/12/17 20:54:46;;;;;;;1166.87;999.90;;;-8.00;99.90;;;;;;5043520;28;20271;-50
2022/12/17 20:57:14;;;;;;;1169.53;998.10;;;-8.00;99.90;;;;;;5048284;28;20205;-52
2022/12/17 20:59:42;;;;;;;1194.13;999.90;;;-8.00;99.90;;;;;;5044326;28;20219;-52
2022/12/17 21:02:11;;;;;;;1175.33;999.90;;;-8.00;99.90;;;;;;5037291;28;20232;-52
2022/12/17 21:04:39;;;;;;;1175.13;999.90;;;-8.00;99.90;;;;;;5043281;28;20213;-52
2022/12/17 21:07:08;;;;;;;1116.87;986.30;;;-8.10;99.90;;;;;;5039732;28;20292;-51
2022/12/17 21:09:36;;;;;;;1131.33;996.17;;;-8.10;99.90;;;;;;5041051;28;20279;-51
2022/12/17 21:12:05;;;;;;;1145.80;990.47;;;-8.10;99.90;;;;;;5044384;28;20323;-50
2022/12/17 21:14:33;;;;;;;1068.50;945.53;;;-8.10;99.90;;;;;;5030061;28;20244;-50
2022/12/17 21:17:03;;;;;;;1163.63;993.73;;;-8.10;99.90;;;;;;5034518;28;20199;-51
2022/12/17 21:19:32;;;;;;;1212.60;999.90;;;-8.10;99.90;;;;;;5033829;28;20652;-50
2022/12/17 21:22:00;;;;;;;1123.23;991.13;;;-8.10;99.90;;;;;;5035886;28;20240;-52
2022/12/17 21:24:30;;;;;;;1170.53;999.90;;;-8.00;99.90;;;;;;5038336;28;20303;-52
2022/12/17 21:26:58;;;;;;;1077.00;963.83;;;-8.10;99.90;;;;;;5030154;28;20235;-51
2022/12/17 21:29:26;;;;;;;1130.70;994.97;;;-8.20;99.90;;;;;;5036419;28;20298;-51
2022/12/17 21:31:54;;;;;;;1110.37;988.83;;;-8.20;99.90;;;;;;5031149;28;20270;-52
2022/12/17 21:34:24;;;;;;;1087.90;974.07;;;-8.10;99.90;;;;;;5037840;28;20215;-51
2022/12/17 21:36:52;;;;;;;1105.57;984.77;;;-8.10;99.90;;;;;;5027397;28;20235;-49
2022/12/17 21:39:21;;;;;;;1133.43;995.70;;;-8.20;99.90;;;;;;5034702;28;20686;-53
2022/12/17 21:44:36;;;;;;;1313.63;999.90;;;-8.10;99.90;;;;;;5034962;28;20208;-52
2022/12/17 21:47:05;;;;;;;1425.83;968.27;;;-8.00;99.90;;;;;;5042085;28;20683;-51
2022/12/17 21:49:33;;;;;;;1275.50;956.17;;;-8.00;99.90;;;;;;5037813;28;20211;-52
2022/12/17 21:52:02;;;;;;;1251.67;970.70;;;-8.00;99.90;;;;;;5046256;28;20654;-52
2022/12/17 21:54:30;;;;;;;1408.13;971.03;;;-7.90;99.90;;;;;;5034708;28;20738;-51
2022/12/17 21:57:00;;;;;;;1253.40;963.33;;;-7.80;99.90;;;;;;5033135;28;20313;-52
2022/12/17 21:59:28;;;;;;;1189.17;993.50;;;-7.80;99.90;;;;;;5041781;28;20219;-51
2022/12/17 22:01:56;;;;;;;1090.30;961.17;;;-7.90;99.90;;;;;;5044706;28;20250;-52
2022/12/17 22:04:26;;;;;;;1082.03;962.17;;;-8.00;99.90;;;;;;5047991;28;20345;-50
2022/12/17 22:06:54;;;;;;;1112.87;983.33;;;-8.00;99.90;;;;;;5031938;28;20208;-52
2022/12/17 22:09:32;;;;;;;1144.80;999.90;;;-8.00;99.90;;;;;;5038988;28;20215;-51
2022/12/17 22:15:09;;;;;;;1070.40;957.07;;;-8.20;99.90;;;;;;5035040;28;20216;-52
2022/12/17 22:17:39;;;;;;;1038.93;932.13;;;-8.20;99.90;;;;;;5031672;28;20334;-52
2022/12/17 22:20:08;;;;;;;1063.57;955.87;;;-8.20;99.90;;;;;;5031554;28;20572;-51
2022/12/17 22:22:37;;;;;;;1056.93;947.93;;;-8.20;99.90;;;;;;5034834;28;20326;-51
2022/12/17 22:25:06;;;;;;;1055.87;947.13;;;-8.30;99.90;;;;;;5033745;28;20219;-49
2022/12/17 22:27:40;;;;;;;995.50;901.63;;;-8.30;99.90;;;;;;5034756;28;20282;-53
2022/12/17 22:33:04;;;;;;;1070.17;957.13;;;-8.20;99.90;;;;;;5047841;28;20212;-52
2022/12/17 22:35:52;;;;;;;1036.63;933.20;;;-8.20;99.90;;;;;;5033240;28;20223;-52
2022/12/17 22:38:40;;;;;;;1074.63;955.87;;;-8.20;99.90;;;;;;5034117;28;20216;-51
2022/12/17 22:44:35;;;;;;;956.10;869.87;;;-8.20;99.90;;;;;;5042124;28;20795;-52
2022/12/17 22:47:19;;;;;;;1062.90;957.23;;;-8.30;99.90;;;;;;5040226;28;20238;-51
2022/12/17 22:49:47;;;;;;;1044.17;939.57;;;-8.30;99.90;;;;;;5049959;28;20242;-52
2022/12/17 22:52:16;;;;;;;1081.20;973.90;;;-8.30;99.90;;;;;;5049667;28;20231;-51
2022/12/17 22:54:46;;;;;;;1076.77;963.07;;;-8.30;99.90;;;;;;5043348;28;20207;-50
2022/12/17 22:57:14;;;;;;;1109.27;990.60;;;-8.40;99.90;;;;;;5049393;28;20229;-52
2022/12/17 23:00:07;;;;;;;1082.40;970.37;;;-8.30;99.90;;;;;;5037274;28;20202;-51
2022/12/17 23:02:36;;;;;;;1020.80;923.20;;;-8.40;99.90;;;;;;5036101;28;20313;-51
2022/12/17 23:05:05;;;;;;;1057.47;953.83;;;-8.30;99.90;;;;;;5032355;28;20211;-51
2022/12/17 23:07:33;;;;;;;1045.70;940.10;;;-8.30;99.90;;;;;;5038064;28;20643;-51
2022/12/17 23:10:01;;;;;;;1014.53;918.50;;;-8.30;99.90;;;;;;5039828;28;20240;-51
2022/12/17 23:15:17;;;;;;;1061.93;954.93;;;-8.30;99.90;;;;;;5043758;28;20249;-53
2022/12/17 23:17:45;;;;;;;1101.67;982.70;;;-8.30;99.90;;;;;;5047182;28;20230;-51
2022/12/17 23:20:14;;;;;;;1109.40;989.37;;;-8.30;99.90;;;;;;5049082;28;20209;-51
2022/12/17 23:22:43;;;;;;;1134.07;996.07;;;-8.30;99.90;;;;;;5038577;28;20244;-51
2022/12/17 23:25:11;;;;;;;1073.63;960.93;;;-8.30;99.90;;;;;;5043443;28;20238;-52
2022/12/17 23:27:39;;;;;;;1116.93;994.33;;;-8.40;99.90;;;;;;5049203;28;20235;-50
2022/12/17 23:30:08;;;;;;;1086.03;973.97;;;-8.30;99.90;;;;;;5043165;28;20244;-51
2022/12/17 23:32:38;;;;;;;1094.63;980.40;;;-8.40;99.90;;;;;;5031976;28;20223;-53
2022/12/17 23:35:07;;;;;;;1114.17;992.80;;;-8.40;99.90;;;;;;5031782;28;20220;-52
2022/12/17 23:37:36;;;;;;;1133.83;998.43;;;-8.40;99.90;;;;;;5032782;28;20627;-53
2022/12/17 23:40:08;;;;;;;1089.80;973.97;;;-8.40;99.90;;;;;;5032548;28;20295;-51
2022/12/17 23:42:37;;;;;;;1136.30;996.73;;;-8.40;99.90;;;;;;5042516;28;20238;-53
2022/12/17 23:45:06;;;;;;;1055.73;946.10;;;-8.40;99.90;;;;;;5047155;28;20248;-52
2022/12/17 23:47:34;;;;;;;1291.97;999.90;;;-8.40;99.90;;;;;;5048856;28;20309;-52
2022/12/17 23:50:05;;;;;;;1359.33;999.90;;;-8.30;99.90;;;;;;5048672;28;20214;-53
2022/12/17 23:52:33;;;;;;;1096.00;970.77;;;-8.30;99.90;;;;;;5048666;28;20901;-52
2022/12/17 23:55:01;;;;;;;1054.47;940.97;;;-8.20;99.90;;;;;;5048690;28;20207;-52
2022/12/17 23:57:29;;;;;;;1058.93;947.30;;;-8.20;99.90;;;;;;5049443;28;20310;-51
2022/12/17 23:59:58;;;;;;;1153.80;999.23;;;-8.20;99.90;;;;;;5049582;28;20231;-50
